• Join FlightAware (Why Join?)
  • Login
  • US Flag 
06:16AM EDT


 

Airport Tracker/Info


-or-


 

Live Flight TrackerFlight Track Log ✈ VH-BGQ ✈ 06-Feb-2014 ✈ YMDN - YPJT / JAD

Flight Track Log - Related Links

Times and Time Zones

All times are in EST time to prevent confusion due to time zone crossing. See the VH-BGQ flight status page for this flight to view local times or setup timezone preferences in your user account.

Time Position Orientation Groundspeed Altitude Reporting Facility
EST Latitude Longitude Course Direction KTS MPH feet Rate Location/Type
12:52AM -31.5233 118.3206 264° West 3,000  Level Aus ATC (Calculated)
12:53AM -31.6767 116.5612 248° West 114 131 3,000 -120 Level Aus ATC (RADAR)
12:53AM -31.6820 116.5456 248° West 120 138 2,900  Descending Aus ATC (RADAR)
12:54AM -31.6930 116.5270 235° Southwest 118 136 3,000 60 Climbing Aus ATC (RADAR)
12:54AM -31.7072 116.5026 236° Southwest 121 139 3,000 -120 Level Aus ATC (RADAR)
12:55AM -31.7170 116.4862 235° Southwest 119 137 2,900 60 Descending Aus ATC (RADAR)
12:55AM -31.7298 116.4734 220° Southwest 119 137 3,100 60 Climbing Aus ATC (RADAR)
12:56AM -31.7473 116.4513 227° Southwest 121 139 3,000 -120 Descending Aus ATC (RADAR)
12:57AM -31.7603 116.4343 228° Southwest 119 137 3,000  Level Aus ATC (RADAR)
12:58AM -31.7877 116.4056 222° Southwest 122 140 3,000  Level Aus ATC (RADAR)
12:58AM -31.7987 116.3943 221° Southwest 124 143 3,000  Level Aus ATC (RADAR)
12:59AM -31.8176 116.3786 215° Southwest 123 142 3,000  Level Aus ATC (RADAR)
01:00AM -31.8360 116.3650 212° Southwest 116 133 3,000  Level Aus ATC (RADAR)
01:00AM -31.8530 116.3549 207° Southwest 117 135 3,000  Level Aus ATC (RADAR)
01:01AM -31.8742 116.3396 212° Southwest 121 139 3,000  Level Aus ATC (RADAR)
01:01AM -31.8860 116.3303 214° Southwest 121 139 3,000  Level Aus ATC (RADAR)
01:02AM -31.9048 116.3161 213° Southwest 119 137 3,000  Level Aus ATC (RADAR)
01:03AM -31.9365 116.2890 216° Southwest 129 148 3,000  Level Aus ATC (RADAR)
01:04AM -31.9475 116.2784 219° Southwest 123 142 3,000  Level Aus ATC (RADAR)
01:04AM -31.9632 116.2631 219° Southwest 126 145 3,000  Level Aus ATC (RADAR)
01:05AM -31.9831 116.2422 222° Southwest 127 146 3,000  Level Aus ATC (RADAR)
01:05AM -32.0019 116.2296 210° Southwest 133 153 3,000  Level Aus ATC (RADAR)
01:06AM -32.0240 116.2202 200° South 112 129 3,000 60 Level Aus ATC (RADAR)
01:07AM -32.0363 116.2130 207° Southwest 117 135 3,100  Climbing Aus ATC (RADAR)
01:07AM -32.0548 116.2027 205° Southwest 124 143 3,000 -120 Descending Aus ATC (RADAR)
01:08AM -32.0886 116.1876 201° Southwest 133 153 3,000  Level Aus ATC (RADAR)
01:09AM -32.1015 116.1795 208° Southwest 128 147 3,000  Level Aus ATC (RADAR)
01:09AM -32.1176 116.1661 215° Southwest 120 138 3,000 -120 Level Aus ATC (RADAR)
01:10AM -32.1371 116.1467 220° Southwest 123 142 2,900  Descending Aus ATC (RADAR)
01:10AM -32.1493 116.1295 230° Southwest 116 133 3,000 120 Climbing Aus ATC (RADAR)
01:11AM -32.1640 116.1066 233° Southwest 117 135 3,100 -120 Climbing Aus ATC (RADAR)
01:12AM -32.1737 116.0928 230° Southwest 125 144 2,900 -120 Descending Aus ATC (RADAR)
01:12AM -32.1850 116.0738 235° Southwest 119 137 3,000 120 Climbing Aus ATC (RADAR)
01:13AM -32.2039 116.0457 232° Southwest 117 135 3,100 -120 Climbing Aus ATC (RADAR)
01:14AM -32.2134 116.0315 232° Southwest 126 145 2,900 -120 Descending Aus ATC (RADAR)
01:14AM -32.2260 116.0131 231° Southwest 123 142 3,000 120 Climbing Aus ATC (RADAR)
01:15AM -32.2454 115.9895 226° Southwest 117 135 3,100  Climbing Aus ATC (RADAR)
01:16AM -32.2598 115.9743 222° Southwest 118 136 3,000 420 Descending Aus ATC (RADAR)
01:16AM -32.2749 115.9560 226° Southwest 101 116 3,700 480 Climbing Aus ATC (RADAR)
01:17AM -32.2841 115.9459 223° Southwest 106 122 3,600 -120 Descending Aus ATC (RADAR)
01:17AM -32.2972 115.9324 221° Southwest 106 122 3,600 -120 Level Aus ATC (RADAR)
01:18AM -32.3205 115.9095 220° Southwest 107 123 3,500 -180 Descending Aus ATC (RADAR)
01:19AM -32.3233 115.9251 102° East 108 124 3,400  Descending Aus ATC (RADAR)
01:19AM -32.3285 115.9390 114° Southeast 97 112 3,500  Climbing Aus ATC (RADAR)
01:20AM -32.3312 115.9367 216° Southwest 92 106 3,400  Descending Aus ATC (RADAR)
01:21AM -32.3433 115.9223 225° Southwest 95 109 3,500 120 Climbing Aus ATC (RADAR)
01:21AM -32.3463 115.9046 259° West 99 114 3,600 240 Climbing Aus ATC (RADAR)
01:22AM -32.3537 115.9088 154° Southeast 91 105 3,800 240 Climbing Aus ATC (RADAR)
01:22AM -32.3413 115.9085 359° North 88 101 3,900 120 Climbing Aus ATC (RADAR)
01:23AM -32.3537 115.9259 130° Southeast 84 97 4,000  Climbing Aus ATC (RADAR)
01:24AM -32.3624 115.9269 175° South 79 91 3,900 -240 Descending Aus ATC (RADAR)
01:24AM -32.3720 115.9250 189° South 61 70 3,800 120 Descending Aus ATC (RADAR)
01:25AM -32.3876 115.9169 204° Southwest 80 92 4,100 300 Climbing Aus ATC (RADAR)
01:26AM -32.4010 115.9118 198° South 87 100 4,200 120 Climbing Aus ATC (RADAR)
01:27AM -32.4127 115.9050 206° Southwest 66 76 4,300 60 Climbing Aus ATC (RADAR)
01:27AM -32.4196 115.8954 230° Southwest 83 96 4,300 -120 Level Aus ATC (RADAR)
01:28AM -32.4170 115.8743 278° West 100 115 4,200 -240 Descending Aus ATC (RADAR)
01:29AM -32.3922 115.8707 353° North 94 108 4,000 -540 Descending Aus ATC (RADAR)
01:29AM -32.3857 115.8662 330° Northwest 70 81 3,500 -300 Descending Aus ATC (RADAR)
01:30AM -32.3717 115.8595 338° Northwest 96 110 3,700 -240 Climbing Aus ATC (RADAR)
01:30AM -32.3531 115.8711 28° Northeast 102 117 3,200 -660 Descending Aus ATC (RADAR)
01:31AM -32.3377 115.8767 17° North 113 130 2,900 -660 Descending Aus ATC (RADAR)
01:31AM -32.3191 115.8874 26° Northeast 113 130 2,500 -600 Descending Aus ATC (RADAR)
01:33AM -32.2796 115.9090 25° Northeast 115 132 1,800 -540 Descending Aus ATC (RADAR)
01:36AM -32.0974 115.8812 238° Southwest 100 -480 Descending Aus ATC (Calculated)
01:39AM -32.0975 115.8811 68° East  Level Estimated
01:40AM -32.0975 115.8811 68° East  Level Estimated
01:41AM -32.0975 115.8811 68° East  Level Estimated
01:42AM -32.0975 115.8811 68° East  Level Estimated
01:43AM -32.0975 115.8811 68° East  Level Estimated